KMUI/MUI METAR and TAF weather

Enter ICAO airport designator
Station Type Date Time Source
KMUI METAR 2022/06/29 23:56 UTC NOAA

KMUI 292356Z 31003KT 10SM FEW060 25/13 A3015 RMK AO2A SLP210 T02490134 10292 20249 55001


Station Type Date Time Source
KMUI Decoded METAR 2022/06/29 23:56 UTC NOAA

Muir Army Air Field / Indiantown, PA, United States (KMUI) 40-26N 076-34W
Jun 29, 2022 - 07:56 PM EDT / 2022.06.29 2356 UTC
Wind: from the NW (310 degrees) at 3 MPH (3 KT):0
Visibility: 10 mile(s):0
Sky conditions: mostly clear
Temperature: 76.8 F (24.9 C)
Dew Point: 56.1 F (13.4 C)
Relative Humidity: 48%
Pressure (altimeter): 30.15 in. Hg (1020 hPa)
Pressure tendency: 0.00 inches (0.1 hPa) lower than three hours ago
ob: KMUI 292356Z 31003KT 10SM FEW060 25/13 A3015 RMK AO2A SLP210 T02490134 10292 20249 55001
cycle: 0

Station Type Date Time Source
KMUI TAF 2022/06/29 19:06 UTC NOAA

TAF KMUI 291900Z 2919/0101 VRB06KT 9999 FEW120 QNH3017INS
BECMG 2923/2924 VRB06KT 9999 SCT080 QNH3013INS TX29/3019Z TN13/3010Z LAST NO
AMDS AFT 3005 NEXT 3011

Example: see airport list